createdAt,value
2022-10-19T00:00:45.892Z,80.3
2022-10-19T00:01:50.267Z,80.2
2022-10-19T00:02:52.752Z,80.1
2022-10-19T00:03:55.667Z,80.1
2022-10-19T00:04:57.942Z,80.1
2022-10-19T00:06:01.096Z,80.1
2022-10-19T00:07:03.812Z,80.2
2022-10-19T00:08:06.678Z,79.9
2022-10-19T00:09:08.922Z,80
2022-10-19T00:10:12.022Z,80.2
2022-10-19T00:11:14.466Z,80.2
2022-10-19T00:12:16.897Z,80
2022-10-19T00:13:20.345Z,79.9
2022-10-19T00:14:22.874Z,79.9
2022-10-19T00:15:26.587Z,80.1
2022-10-19T00:16:29.679Z,79.9
2022-10-19T00:17:35.178Z,79.9
2022-10-19T00:18:38.728Z,79.8
2022-10-19T00:19:41.525Z,79.8
2022-10-19T00:20:44.230Z,79.9
2022-10-19T00:21:47.293Z,80
2022-10-19T00:22:50.530Z,80.2
2022-10-19T00:23:53.597Z,80.1
2022-10-19T00:24:56.947Z,80.1
2022-10-19T00:26:00.010Z,80.1
2022-10-19T00:27:03.357Z,79.7
2022-10-19T00:28:07.135Z,79.7
2022-10-19T00:29:10.888Z,79.8
2022-10-19T00:30:14.466Z,79.7
2022-10-19T00:31:17.622Z,79.8
2022-10-19T00:32:20.732Z,79.6
2022-10-19T00:33:24.897Z,79.6
2022-10-19T00:34:27.987Z,79.7
2022-10-19T00:35:31.220Z,79.8
2022-10-19T00:36:33.935Z,79.8
2022-10-19T00:37:37.270Z,79.5
2022-10-19T00:38:40.338Z,79.5
2022-10-19T00:39:43.523Z,79.8
2022-10-19T00:40:46.316Z,79.7
2022-10-19T00:41:49.023Z,79.8
2022-10-19T00:42:51.966Z,79.6
2022-10-19T00:43:54.831Z,79.8
2022-10-19T00:44:57.617Z,80
2022-10-19T00:46:00.868Z,79.7
2022-10-19T00:47:04.528Z,79.8
2022-10-19T00:48:07.224Z,79.9
2022-10-19T00:49:12.196Z,79.8
2022-10-19T00:50:15.698Z,79.9
2022-10-19T00:51:18.578Z,80.3
2022-10-19T00:52:21.676Z,80.2
2022-10-19T00:53:24.190Z,80.2
2022-10-19T00:54:27.107Z,80.2
2022-10-19T00:55:30.255Z,80.1
2022-10-19T00:56:32.929Z,80.2
2022-10-19T00:57:35.758Z,80
2022-10-19T00:58:38.578Z,80
2022-10-19T00:59:41.649Z,80
2022-10-19T01:00:44.467Z,79.9
2022-10-19T01:01:46.906Z,80
2022-10-19T01:02:50.638Z,79.9
2022-10-19T01:03:53.643Z,80.1
2022-10-19T01:04:57.464Z,80.3
2022-10-19T01:06:01.197Z,80.5
2022-10-19T01:07:04.184Z,80.3
2022-10-19T01:08:06.221Z,80.3
2022-10-19T01:09:09.302Z,80.5
2022-10-19T01:10:12.436Z,80.7
2022-10-19T01:11:16.230Z,80.8
2022-10-19T01:12:18.945Z,80.9
2022-10-19T01:13:22.295Z,81.3
2022-10-19T01:14:25.746Z,81.1
2022-10-19T01:15:28.820Z,80.8
2022-10-19T01:16:31.680Z,80.9
2022-10-19T01:17:35.786Z,81.2
2022-10-19T01:18:38.699Z,81
2022-10-19T01:19:41.887Z,81
2022-10-19T01:20:45.950Z,80.4
2022-10-19T01:21:49.348Z,80.3
2022-10-19T01:22:52.517Z,80.5
2022-10-19T01:23:55.308Z,80.6
2022-10-19T01:24:58.026Z,80.6
2022-10-19T01:26:00.818Z,81.1
2022-10-19T01:27:04.181Z,81.1
2022-10-19T01:28:06.776Z,81
2022-10-19T01:29:09.991Z,81
2022-10-19T01:30:13.198Z,81.1
2022-10-19T01:31:15.871Z,81.2
2022-10-19T01:32:18.584Z,81.2
2022-10-19T01:33:21.526Z,80.8
2022-10-19T01:34:24.331Z,80.8
2022-10-19T01:35:27.345Z,80.9
2022-10-19T01:36:31.530Z,81.3
2022-10-19T01:37:36.008Z,81.4
2022-10-19T01:38:39.459Z,81.6
2022-10-19T01:39:50.540Z,81.6
2022-10-19T01:40:53.972Z,81.9
2022-10-19T01:41:57.499Z,81.9
2022-10-19T01:43:00.668Z,82
2022-10-19T01:44:03.487Z,82
2022-10-19T01:45:06.553Z,81.7
2022-10-19T01:46:09.901Z,81.8
2022-10-19T01:47:13.441Z,81.7
2022-10-19T01:48:16.448Z,81.6
2022-10-19T01:49:19.248Z,81.4
2022-10-19T01:50:22.582Z,81.5
2022-10-19T01:51:25.677Z,81.6
2022-10-19T01:52:29.567Z,81.8
2022-10-19T01:53:33.097Z,81.7
2022-10-19T01:54:35.890Z,81.9
2022-10-19T01:55:38.488Z,82
2022-10-19T01:56:41.275Z,82.1
2022-10-19T01:57:43.982Z,81.9
2022-10-19T01:58:46.840Z,81.5
2022-10-19T01:59:49.900Z,81.5
2022-10-19T02:00:53.317Z,81.6
2022-10-19T02:01:56.964Z,81.4
2022-10-19T02:02:59.759Z,81.6
2022-10-19T02:04:02.916Z,81.7
2022-10-19T02:05:05.975Z,80.9
2022-10-19T02:06:08.842Z,81.1
2022-10-19T02:07:10.825Z,81.4
2022-10-19T02:08:14.974Z,81.2
2022-10-19T02:09:17.506Z,80.9
2022-10-19T02:10:20.675Z,80.6
2022-10-19T02:11:23.954Z,80.5
2022-10-19T02:12:26.869Z,80.7
2022-10-19T02:13:30.526Z,80.8
2022-10-19T02:14:33.882Z,80.3
2022-10-19T02:15:37.203Z,79.9
2022-10-19T02:16:40.545Z,79.9
2022-10-19T02:17:44.083Z,80.6
2022-10-19T02:18:46.600Z,80.7
2022-10-19T02:19:49.665Z,80.7
2022-10-19T02:20:51.896Z,80.9
2022-10-19T02:21:55.259Z,80.8
2022-10-19T02:22:58.074Z,80.4
2022-10-19T02:24:02.207Z,80.2
2022-10-19T02:25:05.683Z,79.8
2022-10-19T02:26:09.029Z,79.8
2022-10-19T02:27:11.903Z,79.7
2022-10-19T02:28:15.258Z,79.5
2022-10-19T02:29:18.709Z,79.2
2022-10-19T02:30:21.683Z,78.2
2022-10-19T02:31:23.987Z,78
2022-10-19T02:32:27.043Z,78.5
2022-10-19T02:33:29.384Z,78.5
2022-10-19T02:34:32.080Z,77.7
2022-10-19T02:35:35.690Z,78.2
2022-10-19T02:36:38.497Z,77.9
2022-10-19T02:37:41.173Z,77.9
2022-10-19T02:38:43.507Z,77.4
2022-10-19T02:39:47.611Z,77.7
2022-10-19T02:40:51.084Z,77.7
2022-10-19T02:41:54.150Z,77.8
2022-10-19T02:42:56.679Z,77.7
2022-10-19T02:43:59.599Z,77.8
2022-10-19T02:45:02.122Z,77.4
2022-10-19T02:46:05.463Z,77
2022-10-19T02:47:08.336Z,77.4
2022-10-19T02:48:11.054Z,77.3
2022-10-19T02:49:14.422Z,77.3
2022-10-19T02:50:17.006Z,77.2
2022-10-19T02:51:19.887Z,77
2022-10-19T02:52:23.346Z,77.1
2022-10-19T02:53:26.610Z,76.7
2022-10-19T02:54:29.069Z,77.2
2022-10-19T02:55:33.443Z,76.7
2022-10-19T02:56:36.851Z,76.6
2022-10-19T02:57:40.094Z,77.1
2022-10-19T02:58:42.623Z,76.6
2022-10-19T02:59:46.046Z,76.7
2022-10-19T03:00:49.963Z,76.9
2022-10-19T03:01:53.604Z,76.6
2022-10-19T03:02:57.275Z,76.4
2022-10-19T03:04:00.344Z,75.7
2022-10-19T03:05:03.598Z,75.9
2022-10-19T03:06:07.052Z,76
2022-10-19T03:07:10.546Z,75.9
2022-10-19T03:08:13.252Z,76.3
2022-10-19T03:09:16.341Z,76.4
2022-10-19T03:10:19.153Z,75.9
2022-10-19T03:11:23.229Z,75.8
2022-10-19T03:12:25.767Z,76.3
2022-10-19T03:13:28.864Z,76.3
2022-10-19T03:14:32.033Z,75.9
2022-10-19T03:15:35.708Z,76.5
2022-10-19T03:16:38.582Z,77
2022-10-19T03:17:41.080Z,76.4
2022-10-19T03:18:43.858Z,75.2
2022-10-19T03:19:46.558Z,75.7
2022-10-19T03:20:49.341Z,75.4
2022-10-19T03:21:52.136Z,75.4
2022-10-19T03:22:55.668Z,75.6
2022-10-19T03:23:58.570Z,75.1
2022-10-19T03:25:00.883Z,75.3
2022-10-19T03:26:04.283Z,75.6
2022-10-19T03:27:14.899Z,75.1
2022-10-19T03:28:18.357Z,75.4
2022-10-19T03:29:21.022Z,75.5
2022-10-19T03:30:24.009Z,75.7
2022-10-19T03:31:26.333Z,75.4
2022-10-19T03:32:29.062Z,75.6
2022-10-19T03:33:31.427Z,75.4
2022-10-19T03:34:34.160Z,75.7
2022-10-19T03:35:37.639Z,75.8
2022-10-19T03:36:40.079Z,76
2022-10-19T03:37:43.812Z,76.1
2022-10-19T03:38:46.689Z,75.3
2022-10-19T03:39:50.681Z,74.2
2022-10-19T03:40:54.405Z,74.4
2022-10-19T03:41:57.488Z,74.5
2022-10-19T03:43:01.306Z,74.9
2022-10-19T03:44:04.187Z,75
2022-10-19T03:45:07.070Z,75.7
2022-10-19T03:46:09.599Z,75.7
2022-10-19T03:47:12.533Z,75.4
2022-10-19T03:48:15.872Z,74.8
2022-10-19T03:49:18.379Z,74.5
2022-10-19T03:50:21.087Z,74.3
2022-10-19T03:51:23.306Z,73.9
2022-10-19T03:52:26.354Z,73.8
2022-10-19T03:53:29.334Z,74.3
2022-10-19T03:54:35.645Z,74.2
2022-10-19T03:55:38.072Z,74.2
2022-10-19T03:56:40.750Z,75.1
2022-10-19T03:57:43.564Z,75
2022-10-19T03:58:47.654Z,75
2022-10-19T03:59:49.964Z,75.4
2022-10-19T04:00:53.218Z,76
2022-10-19T04:01:56.120Z,76
2022-10-19T04:02:59.176Z,75
2022-10-19T04:04:02.617Z,75.5
2022-10-19T04:05:05.757Z,75.6
2022-10-19T04:06:08.929Z,74.8
2022-10-19T04:07:11.718Z,75
2022-10-19T04:08:14.988Z,76
2022-10-19T04:09:17.860Z,76.5
2022-10-19T04:10:20.684Z,76.6
2022-10-19T04:11:23.763Z,76.6
2022-10-19T04:12:27.109Z,75.7
2022-10-19T04:13:29.567Z,76.4
2022-10-19T04:14:58.443Z,76.6
2022-10-19T04:16:01.171Z,76.5
2022-10-19T04:17:04.002Z,76
2022-10-19T04:18:07.071Z,75.8
2022-10-19T04:19:09.893Z,76
2022-10-19T04:20:12.967Z,76.2
2022-10-19T04:21:16.142Z,76.2
2022-10-19T04:22:19.015Z,76.4
2022-10-19T04:23:22.085Z,76.6
2022-10-19T04:24:25.021Z,76.7
2022-10-19T04:25:28.185Z,76.7
2022-10-19T04:26:31.176Z,75.7
2022-10-19T04:27:35.565Z,75.6
2022-10-19T04:28:39.136Z,75.8
2022-10-19T04:29:43.193Z,75.5
2022-10-19T04:30:46.817Z,75.9
2022-10-19T04:31:49.797Z,76
2022-10-19T04:32:52.937Z,75.2
2022-10-19T04:33:55.939Z,75.9
2022-10-19T04:34:59.011Z,76.5
2022-10-19T04:36:02.356Z,76.5
2022-10-19T04:37:05.067Z,75.8
2022-10-19T04:38:08.222Z,75.3
2022-10-19T04:39:11.954Z,75.5
2022-10-19T04:40:16.375Z,75.6
2022-10-19T04:41:19.837Z,76.2
2022-10-19T04:42:23.174Z,76.7
2022-10-19T04:43:25.327Z,76.6
2022-10-19T04:44:27.609Z,76.7
2022-10-19T04:45:31.707Z,77.3
2022-10-19T04:46:34.253Z,77.1
2022-10-19T04:47:38.108Z,77
2022-10-19T04:48:40.933Z,77.4
2022-10-19T04:49:43.098Z,77.5
2022-10-19T04:50:46.449Z,77.4
2022-10-19T04:51:49.434Z,76.9
2022-10-19T04:52:52.151Z,76.8
2022-10-19T04:54:00.911Z,76.5
2022-10-19T04:55:03.426Z,76.5
2022-10-19T04:56:07.166Z,76.5
2022-10-19T04:57:10.890Z,76.6
2022-10-19T04:58:13.970Z,76.9
2022-10-19T04:59:17.658Z,76.8
2022-10-19T05:00:20.695Z,76.1
2022-10-19T05:01:25.185Z,76.2
2022-10-19T05:02:28.308Z,76.6
2022-10-19T05:03:31.095Z,76.5
2022-10-19T05:04:33.874Z,76.6
2022-10-19T05:05:36.859Z,76.7
2022-10-19T05:06:40.231Z,77.1
2022-10-19T05:07:42.937Z,77.3
2022-10-19T05:08:45.732Z,77.3
2022-10-19T05:09:49.110Z,77.2
2022-10-19T05:10:51.906Z,77
2022-10-19T05:11:55.250Z,76.8
2022-10-19T05:12:58.676Z,76.9
2022-10-19T05:14:01.212Z,77.5
2022-10-19T05:15:04.561Z,77.3
2022-10-19T05:16:07.787Z,77.5
2022-10-19T05:17:11.832Z,77.2
2022-10-19T05:18:14.713Z,77.1
2022-10-19T05:19:18.164Z,76.7
2022-10-19T05:20:21.692Z,77
2022-10-19T05:21:24.212Z,77.1
2022-10-19T05:22:27.485Z,77.4
2022-10-19T05:23:30.418Z,77.8
2022-10-19T05:24:32.664Z,77.7
2022-10-19T05:25:35.653Z,77.1
2022-10-19T05:26:39.098Z,77.5
2022-10-19T05:27:41.899Z,77.5
2022-10-19T05:28:45.459Z,77.9
2022-10-19T05:29:48.758Z,77.7
2022-10-19T05:30:51.270Z,77.7
2022-10-19T05:31:54.392Z,77.8
2022-10-19T05:32:58.541Z,77.7
2022-10-19T05:34:02.232Z,77.8
2022-10-19T05:35:05.627Z,77.9
2022-10-19T05:36:08.791Z,77.2
2022-10-19T05:37:12.161Z,76.6
2022-10-19T05:38:14.971Z,76.6
2022-10-19T05:39:17.481Z,77
2022-10-19T05:40:20.260Z,77.4
2022-10-19T05:41:22.965Z,77.9
2022-10-19T05:42:26.311Z,78
2022-10-19T05:43:29.735Z,77.7
2022-10-19T05:44:33.265Z,77.3
2022-10-19T05:45:36.013Z,77.8
2022-10-19T05:46:39.081Z,78.4
2022-10-19T05:47:41.819Z,78.6
2022-10-19T05:48:46.206Z,78.5
2022-10-19T05:49:49.404Z,78.7
2022-10-19T05:50:52.168Z,78.7
2022-10-19T05:51:55.249Z,77.7
2022-10-19T05:52:58.499Z,77.5
2022-10-19T05:54:01.546Z,77.7
2022-10-19T05:55:04.335Z,77.3
2022-10-19T05:56:07.328Z,77.4
2022-10-19T05:57:10.334Z,77.5
2022-10-19T05:58:12.758Z,77.7
2022-10-19T05:59:15.519Z,78.1
2022-10-19T06:00:19.024Z,77.5
2022-10-19T06:01:21.260Z,77.7
2022-10-19T06:02:25.062Z,78.4
2022-10-19T06:03:28.232Z,78.1
2022-10-19T06:04:32.034Z,77.8
2022-10-19T06:05:35.737Z,77.8
2022-10-19T06:06:39.137Z,77.8
2022-10-19T06:07:42.544Z,78.2
2022-10-19T06:08:46.272Z,78.4
2022-10-19T06:09:49.674Z,78.3
2022-10-19T06:10:52.460Z,78.2
2022-10-19T06:11:54.971Z,78.1
2022-10-19T06:12:58.744Z,78
2022-10-19T06:14:01.072Z,78.2
2022-10-19T06:15:03.734Z,78
2022-10-19T06:16:06.858Z,78.1
2022-10-19T06:17:09.849Z,78.5
2022-10-19T06:18:13.216Z,79.1
2022-10-19T06:19:16.602Z,78.3
2022-10-19T06:20:20.482Z,78.6
2022-10-19T06:21:24.003Z,78.1
2022-10-19T06:22:27.354Z,78.4
2022-10-19T06:23:30.132Z,78.7
2022-10-19T06:24:33.505Z,78.7
2022-10-19T06:25:36.736Z,78.9
2022-10-19T06:26:40.160Z,78.6
2022-10-19T06:27:43.395Z,78.7
2022-10-19T06:28:46.545Z,78.9
2022-10-19T06:29:50.197Z,78.8
2022-10-19T06:30:52.798Z,78.8
2022-10-19T06:31:55.853Z,78.8
2022-10-19T06:33:00.211Z,78.8
2022-10-19T06:34:03.958Z,78.9
2022-10-19T06:35:07.875Z,78.9
2022-10-19T06:36:12.038Z,78.9
2022-10-19T06:37:14.926Z,78.9
2022-10-19T06:38:18.106Z,79.3
2022-10-19T06:39:20.538Z,79.7
2022-10-19T06:40:23.904Z,79.9
2022-10-19T06:41:26.635Z,80
2022-10-19T06:42:30.293Z,79.9
2022-10-19T06:43:33.529Z,79.1
2022-10-19T06:44:36.962Z,78.8
2022-10-19T06:45:40.304Z,78.9
2022-10-19T06:46:43.091Z,78.4
2022-10-19T06:47:49.933Z,78.7
2022-10-19T06:48:53.160Z,79.1
2022-10-19T06:49:56.775Z,79.2
2022-10-19T06:50:59.740Z,78.9
2022-10-19T06:52:03.852Z,79.1
2022-10-19T06:53:06.668Z,79.1
2022-10-19T06:54:10.020Z,79.3
2022-10-19T06:55:12.911Z,79.2
2022-10-19T06:56:16.360Z,79.3
2022-10-19T06:57:19.820Z,79.2
2022-10-19T06:58:22.367Z,79.2
2022-10-19T06:59:25.260Z,79
2022-10-19T07:00:28.254Z,79.1
2022-10-19T07:01:31.373Z,79
2022-10-19T07:02:34.720Z,79
2022-10-19T07:03:38.240Z,79.2
2022-10-19T07:04:41.680Z,79.2
2022-10-19T07:05:45.058Z,79.4
2022-10-19T07:06:48.355Z,79.2
2022-10-19T07:07:52.679Z,79.5
2022-10-19T07:08:56.427Z,79.7
2022-10-19T07:09:59.885Z,79.9
2022-10-19T07:11:02.966Z,79.8
2022-10-19T07:12:06.231Z,79.6
2022-10-19T07:14:13.525Z,79.6
2022-10-19T07:15:16.666Z,79.5
2022-10-19T07:16:22.970Z,79.5
2022-10-19T07:17:25.420Z,79.5
2022-10-19T07:18:28.656Z,79.5
2022-10-19T07:19:31.993Z,79.4
2022-10-19T07:20:34.759Z,79.3
2022-10-19T07:21:37.926Z,79.2
2022-10-19T07:22:41.579Z,79
2022-10-19T07:23:45.490Z,78.9
2022-10-19T07:24:48.602Z,78.9
2022-10-19T07:25:52.109Z,79.3
2022-10-19T07:26:55.501Z,79.3
2022-10-19T07:27:58.389Z,79.2
2022-10-19T07:29:01.374Z,78.8
2022-10-19T07:30:05.095Z,78.4
2022-10-19T07:31:08.788Z,78.5
2022-10-19T07:32:12.140Z,78.6
2022-10-19T07:33:15.124Z,78.6
2022-10-19T07:34:17.946Z,78.7
2022-10-19T07:35:21.123Z,78.7
2022-10-19T07:36:23.516Z,78.6
2022-10-19T07:37:26.794Z,78.5
2022-10-19T07:38:29.714Z,78.4
2022-10-19T07:39:33.816Z,78.3
2022-10-19T07:40:36.850Z,78.2
2022-10-19T07:41:40.219Z,78.1
2022-10-19T07:42:43.317Z,77.9
2022-10-19T07:43:46.030Z,77.4
2022-10-19T07:44:49.757Z,77.1
2022-10-19T07:45:52.448Z,77
2022-10-19T07:46:55.445Z,76.8
2022-10-19T07:47:58.664Z,76.8
2022-10-19T07:49:01.817Z,76.8
2022-10-19T07:50:05.542Z,76.8
2022-10-19T07:51:08.684Z,77.2
2022-10-19T07:52:11.833Z,77.4
2022-10-19T07:53:15.332Z,77.1
2022-10-19T07:54:18.995Z,77
2022-10-19T07:55:23.222Z,77
2022-10-19T07:56:26.588Z,76.9
2022-10-19T07:57:29.746Z,76.6
2022-10-19T07:58:31.786Z,76.5
2022-10-19T07:59:34.593Z,76.3
2022-10-19T08:00:37.026Z,76.2
2022-10-19T08:01:40.261Z,76.2
2022-10-19T08:04:48.923Z,75.9
2022-10-19T08:06:14.999Z,75.8
2022-10-19T08:07:18.081Z,75.6
2022-10-19T08:08:20.598Z,74.5
2022-10-19T08:09:55.442Z,74.2
2022-10-19T08:10:59.643Z,74.2
2022-10-19T08:12:02.858Z,73.9
2022-10-19T08:13:06.295Z,73.1
2022-10-19T08:14:09.297Z,72.9
2022-10-19T08:15:12.171Z,72.9
2022-10-19T08:16:14.688Z,72.7
2022-10-19T08:17:18.698Z,72.6
2022-10-19T08:18:21.723Z,72.1
2022-10-19T08:19:25.592Z,71.8
2022-10-19T08:20:28.385Z,71.9
2022-10-19T08:21:31.846Z,72.2
2022-10-19T08:22:37.602Z,72.1
2022-10-19T08:23:40.623Z,72.2
2022-10-19T08:24:43.455Z,72.5
2022-10-19T08:25:46.738Z,72.8
2022-10-19T08:26:50.615Z,73
2022-10-19T08:27:54.379Z,73.2
2022-10-19T08:28:57.618Z,73.3
2022-10-19T08:30:00.972Z,73
2022-10-19T08:31:04.493Z,72.7
2022-10-19T08:32:08.227Z,72.9
2022-10-19T08:33:11.306Z,72.4
2022-10-19T08:34:14.180Z,72.1
2022-10-19T08:35:17.539Z,72
2022-10-19T08:36:20.070Z,72.5
2022-10-19T08:37:46.846Z,72.8
2022-10-19T08:38:51.588Z,73.1
2022-10-19T08:39:55.585Z,72.9
2022-10-19T08:40:58.204Z,73.1
2022-10-19T08:42:02.292Z,73
2022-10-19T08:43:05.688Z,73.3
2022-10-19T08:44:11.455Z,73.3
2022-10-19T08:45:14.891Z,73.3
2022-10-19T08:46:17.886Z,73.5
2022-10-19T08:47:25.122Z,73.5
2022-10-19T08:48:28.565Z,73.2
2022-10-19T08:49:31.431Z,73.3
2022-10-19T08:50:34.855Z,73.1
2022-10-19T08:51:38.588Z,73
2022-10-19T08:52:41.677Z,72.9
2022-10-19T08:53:45.104Z,73.1
2022-10-19T08:54:47.529Z,73.2
2022-10-19T08:55:50.689Z,72.9
2022-10-19T08:56:54.054Z,72.4
2022-10-19T08:57:58.293Z,72.3
2022-10-19T08:59:01.690Z,71.7
2022-10-19T09:00:04.207Z,70.6
2022-10-19T09:01:07.391Z,70.2
2022-10-19T09:02:10.465Z,68.8
2022-10-19T09:03:13.546Z,68.2
2022-10-19T09:04:20.298Z,67.8
2022-10-19T09:05:24.302Z,66.5
2022-10-19T09:06:27.458Z,66.4
2022-10-19T09:07:30.603Z,65.9
2022-10-19T09:08:34.590Z,65.6
2022-10-19T09:09:38.134Z,64.4
2022-10-19T09:10:40.780Z,63.7
2022-10-19T09:11:43.767Z,62.9
2022-10-19T09:12:46.513Z,61.1
2022-10-19T09:14:07.747Z,60.1
2022-10-19T09:15:10.875Z,58.8
2022-10-19T09:16:14.219Z,59.3
2022-10-19T09:17:17.303Z,59.2
2022-10-19T09:18:21.045Z,59.3
2022-10-19T09:19:23.475Z,59.8
2022-10-19T09:20:26.184Z,59.7
2022-10-19T09:21:48.381Z,59.3
2022-10-19T09:22:50.824Z,59.7
2022-10-19T09:23:53.627Z,60.3
2022-10-19T09:24:56.706Z,60
2022-10-19T09:25:59.956Z,59
2022-10-19T09:27:03.380Z,58.5
2022-10-19T09:28:05.654Z,58
2022-10-19T09:29:09.847Z,57.1
2022-10-19T09:30:13.209Z,57.2
2022-10-19T09:31:16.495Z,57
2022-10-19T09:32:19.844Z,56.7
2022-10-19T09:33:22.242Z,56.2
2022-10-19T09:34:25.321Z,55.3
2022-10-19T09:35:28.755Z,55.2
2022-10-19T09:36:52.050Z,54.9
2022-10-19T09:37:54.857Z,55.1
2022-10-19T09:38:57.687Z,55.9
2022-10-19T09:40:01.069Z,56.1
2022-10-19T09:41:04.485Z,56.6
2022-10-19T09:42:07.823Z,56.8
2022-10-19T09:43:10.836Z,56.7
2022-10-19T09:44:14.979Z,56.1
2022-10-19T09:45:17.995Z,55.8
2022-10-19T09:46:22.050Z,55.6
2022-10-19T09:47:24.851Z,55.8
2022-10-19T09:48:28.657Z,55.2
2022-10-19T09:49:31.332Z,54.9
2022-10-19T09:50:35.068Z,55
2022-10-19T09:51:38.050Z,54.3
2022-10-19T09:52:41.065Z,53.5
2022-10-19T09:53:44.054Z,53
2022-10-19T09:54:47.226Z,53.5
2022-10-19T09:56:53.026Z,52
2022-10-19T09:57:56.197Z,52
2022-10-19T09:58:59.309Z,52
2022-10-19T10:00:03.493Z,51.4
2022-10-19T10:01:06.645Z,51.2
2022-10-19T10:02:10.383Z,50.1
2022-10-19T10:03:13.746Z,49.6
2022-10-19T10:04:17.722Z,49.7
2022-10-19T10:05:21.173Z,49.5
2022-10-19T10:06:24.243Z,49.4
2022-10-19T10:07:27.321Z,49
2022-10-19T10:08:30.744Z,48.4
2022-10-19T10:09:34.098Z,47.7
2022-10-19T10:11:45.622Z,47
2022-10-19T10:15:08.263Z,45.9
2022-10-19T10:17:21.013Z,45.7
2022-10-19T10:18:25.057Z,46.2
2022-10-19T10:19:28.512Z,46.2
2022-10-19T10:20:31.679Z,45.6
2022-10-19T10:21:34.592Z,45.9
2022-10-19T10:22:38.986Z,45.6
2022-10-19T10:23:41.978Z,45.1
2022-10-19T10:24:45.352Z,44.1
2022-10-19T10:25:48.173Z,44.3
2022-10-19T10:26:51.523Z,44
2022-10-19T10:27:54.723Z,44.1
2022-10-19T10:29:02.731Z,44.2
2022-10-19T10:30:06.466Z,43.8
2022-10-19T10:31:10.191Z,43.5
2022-10-19T10:32:13.952Z,44
2022-10-19T10:33:46.492Z,43.7
2022-10-19T10:35:02.001Z,44
2022-10-19T10:36:04.912Z,43.1
2022-10-19T10:37:08.783Z,43.2
2022-10-19T10:38:11.706Z,42.8
2022-10-19T10:39:15.202Z,42.7
2022-10-19T10:40:24.628Z,42.6
2022-10-19T10:41:28.048Z,42.6
2022-10-19T10:42:31.655Z,42.6
2022-10-19T10:43:34.995Z,42.6
2022-10-19T10:44:37.615Z,41.7
2022-10-19T10:45:41.347Z,41
2022-10-19T10:46:44.335Z,41.2
2022-10-19T10:47:48.098Z,41.2
2022-10-19T10:48:54.539Z,41.4
2022-10-19T10:49:58.192Z,41.3
2022-10-19T10:51:00.806Z,41.3
2022-10-19T10:52:03.519Z,40.6
2022-10-19T10:53:06.702Z,40.4
2022-10-19T10:54:10.082Z,40.6
2022-10-19T10:55:12.968Z,40.4
2022-10-19T10:56:15.408Z,40
2022-10-19T10:57:19.008Z,39.4
2022-10-19T10:58:30.783Z,39.9
2022-10-19T10:59:33.655Z,39.7
2022-10-19T11:00:36.644Z,40.4
2022-10-19T11:01:40.381Z,40.1
2022-10-19T11:02:44.466Z,40.1
2022-10-19T11:03:47.866Z,40.1
2022-10-19T11:04:53.635Z,39.1
2022-10-19T11:05:56.708Z,39.6
2022-10-19T11:06:59.579Z,39.7
2022-10-19T11:08:02.649Z,39.6
2022-10-19T11:09:06.258Z,38.6
2022-10-19T11:10:09.217Z,39
2022-10-19T11:11:11.869Z,38.6
2022-10-19T11:12:15.491Z,38.6
2022-10-19T11:13:18.582Z,39
2022-10-19T11:14:21.399Z,39.5
2022-10-19T11:15:24.454Z,39.2
2022-10-19T11:16:28.136Z,39.2
2022-10-19T11:17:32.395Z,38.6
2022-10-19T11:18:36.775Z,38.9
2022-10-19T11:19:40.556Z,39.1
2022-10-19T11:20:43.566Z,38.7
2022-10-19T11:21:46.397Z,38.8
2022-10-19T11:22:50.140Z,38.8
2022-10-19T11:23:53.208Z,38.4
2022-10-19T11:24:56.632Z,37.9
2022-10-19T11:25:59.712Z,37.5
2022-10-19T11:27:03.682Z,37.8
2022-10-19T11:28:06.394Z,37.3
2022-10-19T11:29:09.759Z,38.2
2022-10-19T11:30:13.518Z,37.9
2022-10-19T11:31:16.936Z,37.9
2022-10-19T11:32:20.653Z,37.8
2022-10-19T11:33:23.378Z,37.7
2022-10-19T11:34:27.631Z,37.2
2022-10-19T11:35:31.339Z,37.5
2022-10-19T11:36:33.900Z,37.6
2022-10-19T11:38:20.574Z,37.6
2022-10-19T11:39:32.866Z,37.2
2022-10-19T11:40:35.584Z,37.2
2022-10-19T11:41:38.677Z,36.5
2022-10-19T11:42:42.150Z,37.3
2022-10-19T11:43:45.760Z,37.1
2022-10-19T11:44:49.213Z,36.8
2022-10-19T11:45:52.727Z,36.6
2022-10-19T11:46:55.822Z,36.1
2022-10-19T11:47:58.868Z,36
2022-10-19T11:49:01.598Z,35.9
2022-10-19T11:50:05.234Z,35.2
2022-10-19T11:51:23.244Z,35
2022-10-19T11:52:26.915Z,35.4
2022-10-19T11:53:29.793Z,35.6
2022-10-19T11:54:32.867Z,36.1
2022-10-19T11:55:36.312Z,36.3
2022-10-19T11:57:11.944Z,36.8
2022-10-19T11:58:15.220Z,36.1
2022-10-19T11:59:18.033Z,36.5
2022-10-19T12:00:41.508Z,36.4
2022-10-19T12:01:45.173Z,35.8
2022-10-19T12:02:48.683Z,36.4
2022-10-19T12:03:51.758Z,36.6
2022-10-19T12:04:54.704Z,37.4
2022-10-19T12:05:58.497Z,37.8
2022-10-19T12:07:02.150Z,37.8
2022-10-19T12:08:05.571Z,37.8
2022-10-19T12:09:08.938Z,38.2
2022-10-19T12:10:12.515Z,38.4
2022-10-19T12:11:14.497Z,38.5
2022-10-19T12:12:17.906Z,39
2022-10-19T12:13:21.906Z,39.4
2022-10-19T12:14:24.694Z,39.5
2022-10-19T12:15:28.419Z,39.1
2022-10-19T12:16:32.017Z,39.2
2022-10-19T12:17:37.271Z,39.2
2022-10-19T12:18:40.366Z,39.4
2022-10-19T12:19:43.546Z,38.9
2022-10-19T12:20:46.332Z,39.2
2022-10-19T12:21:49.938Z,39.1
2022-10-19T12:22:53.713Z,39.3
2022-10-19T12:23:56.799Z,39.9
2022-10-19T12:24:59.599Z,39.5
2022-10-19T12:26:03.018Z,40.1
2022-10-19T12:27:05.763Z,40.7
2022-10-19T12:28:08.836Z,40.8
2022-10-19T12:29:12.213Z,41
2022-10-19T12:30:15.358Z,41.1
2022-10-19T12:31:17.949Z,41.2
2022-10-19T12:32:21.396Z,41
2022-10-19T12:33:23.915Z,40.7
2022-10-19T12:34:27.365Z,40.9
2022-10-19T12:35:30.441Z,41.6
2022-10-19T12:36:33.230Z,41.8
2022-10-19T12:37:38.197Z,42.1
2022-10-19T12:38:59.992Z,41.6
2022-10-19T12:40:03.731Z,41.6
2022-10-19T12:41:07.482Z,41.8
2022-10-19T12:42:10.727Z,41.8
2022-10-19T12:43:14.109Z,41.4
2022-10-19T12:44:18.043Z,41.5
2022-10-19T12:45:20.720Z,41.6
2022-10-19T12:46:24.185Z,41.5
2022-10-19T12:47:26.980Z,41.6
2022-10-19T12:48:30.136Z,41.4
2022-10-19T12:49:32.951Z,41.5
2022-10-19T12:50:39.333Z,42
2022-10-19T12:51:42.958Z,42.4
2022-10-19T12:52:46.416Z,42.6
2022-10-19T12:53:50.028Z,42.8
2022-10-19T12:54:53.183Z,42.8
2022-10-19T12:55:56.337Z,42.6
2022-10-19T12:56:59.968Z,42.5
2022-10-19T12:58:02.863Z,42.1
2022-10-19T12:59:05.997Z,42.1
2022-10-19T13:00:08.945Z,42
2022-10-19T13:01:12.524Z,42.2
2022-10-19T13:02:16.050Z,42.1
2022-10-19T13:03:18.929Z,41.8
2022-10-19T13:04:22.446Z,42.1
2022-10-19T13:05:26.173Z,41.9
2022-10-19T13:06:29.321Z,42
2022-10-19T13:07:34.166Z,42.1
2022-10-19T13:08:38.219Z,42
2022-10-19T13:09:41.723Z,42.6
2022-10-19T13:10:45.423Z,42.4
2022-10-19T13:11:49.100Z,42.3
2022-10-19T13:12:51.820Z,42
2022-10-19T13:13:54.988Z,41.7
2022-10-19T13:14:58.067Z,41.6
2022-10-19T13:16:01.131Z,42.1
2022-10-19T13:17:04.118Z,41.4
2022-10-19T13:18:07.656Z,40.9
2022-10-19T13:19:10.799Z,41
2022-10-19T13:20:14.385Z,41
2022-10-19T13:21:17.421Z,40.8
2022-10-19T13:22:20.557Z,41.2
2022-10-19T13:23:23.610Z,41
2022-10-19T13:24:27.794Z,41
2022-10-19T13:25:31.919Z,41.4
2022-10-19T13:26:35.665Z,41.4
2022-10-19T13:27:40.951Z,41.6
2022-10-19T13:28:44.172Z,42.5
2022-10-19T13:29:47.969Z,50.6
2022-10-19T13:30:51.462Z,52.1
2022-10-19T13:31:54.798Z,47.4
2022-10-19T13:32:57.501Z,42.3
2022-10-19T13:34:00.294Z,45.6
2022-10-19T13:35:02.739Z,45.9
2022-10-19T13:36:06.445Z,45.7
2022-10-19T13:37:08.685Z,45.2
2022-10-19T13:38:11.782Z,44.5
2022-10-19T13:39:14.599Z,43.8
2022-10-19T13:40:25.865Z,45.6
2022-10-19T13:41:29.205Z,40.8
2022-10-19T13:42:33.368Z,40.1
2022-10-19T13:43:36.935Z,42.9
2022-10-19T13:44:40.381Z,45.4
2022-10-19T13:45:45.382Z,43.7
2022-10-19T13:46:48.196Z,44.8
2022-10-19T13:47:51.921Z,40.7
2022-10-19T13:48:54.515Z,43.8
2022-10-19T13:49:57.592Z,45.9
2022-10-19T13:51:00.864Z,45.5
2022-10-19T13:52:04.064Z,44.4
2022-10-19T13:53:07.509Z,44.3
2022-10-19T13:54:10.676Z,43.4
2022-10-19T13:55:13.838Z,44.6
2022-10-19T13:56:17.093Z,43.3
2022-10-19T13:57:20.284Z,45.8
2022-10-19T13:58:23.273Z,43
2022-10-19T13:59:27.844Z,45.6
2022-10-19T14:00:32.088Z,46.8
2022-10-19T14:01:35.346Z,46.8
2022-10-19T14:02:38.378Z,45.9
2022-10-19T14:03:41.525Z,46.4
2022-10-19T14:04:45.514Z,47.7
2022-10-19T14:05:48.372Z,49
2022-10-19T14:06:51.356Z,49.8
2022-10-19T14:07:54.794Z,49.8
2022-10-19T14:08:58.867Z,48.5
2022-10-19T14:10:02.304Z,48.5
2022-10-19T14:11:05.649Z,48.7
2022-10-19T14:12:09.849Z,48.7
2022-10-19T14:13:13.601Z,48.4
2022-10-19T14:14:16.316Z,48.8
2022-10-19T14:15:18.764Z,49
2022-10-19T14:16:21.632Z,49.1
2022-10-19T14:17:24.431Z,48.4
2022-10-19T14:18:27.292Z,48.6
2022-10-19T14:19:30.477Z,48.6
2022-10-19T14:20:33.903Z,49.2
2022-10-19T14:21:37.291Z,50
2022-10-19T14:22:40.092Z,50.6
2022-10-19T14:23:43.804Z,50.9